Time;durP1;ratioP1;P1;durP2;ratioP2;P2;SDS_P1;SDS_P2;PMS_P1;PMS_P2;Temp;Humidity;BMP_temperature;BMP_pressure;BME280_temperature;BME280_humidity;BME280_pressure;Samples;Min_cycle;Max_cycle;Signal;HPM_P1;HPM_P2
2023/09/26 00:02:08;;;;;;;1999.90;999.90;;;8.70;95.00;;;;;;5039412;28;20571;-74
2023/09/26 00:04:33;;;;;;;1999.90;999.90;;;9.00;96.90;;;;;;5036684;28;20518;-74
2023/09/26 00:07:02;;;;;;;1999.90;999.90;;;9.30;97.10;;;;;;5031794;28;20061;-74
2023/09/26 00:09:28;;;;;;;1999.90;999.90;;;9.30;97.10;;;;;;5038040;28;20140;-74
2023/09/26 00:11:55;;;;;;;1999.90;999.90;;;9.30;97.20;;;;;;5031525;28;20438;-74
2023/09/26 00:14:21;;;;;;;1999.90;999.90;;;9.40;98.10;;;;;;5038081;28;20029;-74
2023/09/26 00:16:47;;;;;;;1999.90;999.90;;;9.50;97.90;;;;;;5036029;28;20029;-74
2023/09/26 00:19:13;;;;;;;1999.90;999.90;;;9.50;97.90;;;;;;5032930;28;20037;-73
2023/09/26 00:21:38;;;;;;;1999.90;999.90;;;9.50;97.80;;;;;;5040496;28;20056;-74
2023/09/26 00:24:04;;;;;;;1999.90;999.90;;;9.60;98.20;;;;;;5038192;28;20041;-74
2023/09/26 00:26:30;;;;;;;1999.90;999.90;;;9.70;98.40;;;;;;5036362;28;20749;-73
2023/09/26 00:28:56;;;;;;;1999.90;999.90;;;9.70;98.30;;;;;;5036557;28;20061;-74
2023/09/26 00:31:22;;;;;;;1999.90;999.90;;;9.80;98.30;;;;;;5031483;28;20053;-74
2023/09/26 00:33:47;;;;;;;1999.90;999.90;;;9.80;98.40;;;;;;5036280;28;20036;-74
2023/09/26 00:36:13;;;;;;;1999.90;999.90;;;9.80;98.30;;;;;;5040653;28;20034;-74
2023/09/26 00:38:39;;;;;;;1999.90;999.90;;;9.80;98.20;;;;;;5040234;28;20082;-73
2023/09/26 00:41:06;;;;;;;1999.90;999.90;;;9.70;98.20;;;;;;5032371;28;20095;-73
2023/09/26 00:43:32;;;;;;;1999.90;999.90;;;9.70;98.30;;;;;;5038685;28;20080;-74
2023/09/26 00:45:59;;;;;;;1999.90;999.90;;;9.60;98.00;;;;;;5033909;28;20061;-74
2023/09/26 00:48:25;;;;;;;1999.90;999.90;;;9.50;97.70;;;;;;5036223;28;20021;-74
2023/09/26 00:50:54;;;;;;;1999.90;999.90;;;9.40;97.60;;;;;;5038615;28;20147;-74
2023/09/26 00:53:21;;;;;;;1999.90;999.90;;;9.20;97.30;;;;;;5033883;28;20054;-74
2023/09/26 00:55:49;;;;;;;1999.90;999.90;;;9.10;97.20;;;;;;5035158;28;20044;-74
2023/09/26 00:58:18;;;;;;;1999.90;999.90;;;9.00;97.10;;;;;;5035845;28;20659;-74
2023/09/26 01:00:45;;;;;;;1999.90;999.90;;;9.00;97.20;;;;;;5034849;28;20515;-74
2023/09/26 01:03:11;;;;;;;1999.90;999.90;;;8.90;97.00;;;;;;5032566;28;20083;-73
2023/09/26 01:05:36;;;;;;;1999.90;999.90;;;8.90;96.90;;;;;;5033419;28;20434;-74
2023/09/26 01:08:04;;;;;;;1999.90;999.90;;;8.90;96.80;;;;;;5030960;28;20082;-74
2023/09/26 01:10:30;;;;;;;1999.90;999.90;;;8.80;96.80;;;;;;5035485;28;20762;-74
2023/09/26 01:12:56;;;;;;;1999.90;999.90;;;8.70;96.60;;;;;;5038548;28;20036;-74
2023/09/26 01:15:39;;;;;;;1999.90;999.90;;;8.60;96.50;;;;;;5035549;28;20063;-75
2023/09/26 01:18:16;;;;;;;1999.90;999.90;;;8.60;96.50;;;;;;5058635;28;20050;-74
2023/09/26 01:20:45;;;;;;;1999.90;999.90;;;8.60;96.70;;;;;;5036795;28;20021;-74
2023/09/26 01:23:12;;;;;;;1999.90;999.90;;;8.40;96.50;;;;;;5033800;28;20033;-74
2023/09/26 01:25:40;;;;;;;1999.90;999.90;;;8.40;96.50;;;;;;5034179;28;20064;-74
2023/09/26 01:28:07;;;;;;;1999.90;999.90;;;8.40;96.40;;;;;;5039049;28;20029;-74
2023/09/26 01:30:38;;;;;;;1999.90;999.90;;;8.30;96.30;;;;;;5034571;28;20038;-74
2023/09/26 01:33:05;;;;;;;1999.90;999.90;;;8.30;96.30;;;;;;5029806;28;20451;-74
2023/09/26 01:35:31;;;;;;;1999.90;999.90;;;8.30;96.20;;;;;;5034948;28;20038;-74
2023/09/26 01:37:57;;;;;;;1999.90;999.90;;;8.30;96.50;;;;;;5034490;28;20139;-74
2023/09/26 01:40:22;;;;;;;1999.90;999.90;;;8.30;96.20;;;;;;5035854;28;20721;-75
2023/09/26 01:42:52;;;;;;;1999.90;999.90;;;8.30;96.20;;;;;;5040440;28;20089;-74
2023/09/26 01:45:17;;;;;;;1999.90;999.90;;;8.30;96.30;;;;;;5038082;28;20798;-74
2023/09/26 01:47:47;;;;;;;1999.90;999.90;;;8.30;96.20;;;;;;5040386;28;20022;-74
2023/09/26 01:50:13;;;;;;;1999.90;999.90;;;8.10;96.20;;;;;;5042204;28;20487;-75
2023/09/26 01:52:39;;;;;;;1999.90;999.90;;;8.10;96.20;;;;;;5039993;28;20526;-74
2023/09/26 01:55:06;;;;;;;1999.90;999.90;;;8.10;96.30;;;;;;5042957;28;20038;-75
2023/09/26 01:57:32;;;;;;;1999.90;999.90;;;8.10;96.30;;;;;;5035990;28;20056;-74
2023/09/26 02:00:01;;;;;;;1999.90;999.90;;;8.10;96.30;;;;;;5040218;28;20067;-74
2023/09/26 02:02:27;;;;;;;1999.90;999.90;;;8.00;96.30;;;;;;5039691;28;20037;-74
2023/09/26 02:04:53;;;;;;;1999.90;999.90;;;8.00;96.30;;;;;;5042522;28;20048;-74
2023/09/26 02:07:18;;;;;;;1999.90;999.90;;;8.00;96.30;;;;;;5038877;28;20037;-74
2023/09/26 02:09:44;;;;;;;1999.90;999.90;;;8.00;96.30;;;;;;5045143;28;20033;-75
2023/09/26 02:12:10;;;;;;;1999.90;999.90;;;7.90;96.20;;;;;;5040717;28;20040;-73
2023/09/26 02:14:35;;;;;;;1999.90;999.90;;;8.00;96.30;;;;;;5039926;28;20032;-74
2023/09/26 02:17:01;;;;;;;1999.90;999.90;;;7.90;96.30;;;;;;5039058;28;20048;-74
2023/09/26 02:19:26;;;;;;;1999.90;999.90;;;8.00;96.20;;;;;;5036981;28;20510;-73
2023/09/26 02:21:52;;;;;;;1999.90;999.90;;;7.80;96.10;;;;;;5040407;28;20128;-73
2023/09/26 02:24:18;;;;;;;1999.90;999.90;;;7.80;96.20;;;;;;5043489;28;20047;-74
2023/09/26 02:26:43;;;;;;;1999.90;999.90;;;7.80;96.30;;;;;;5040228;28;20108;-74
2023/09/26 02:29:09;;;;;;;1999.90;999.90;;;7.80;96.40;;;;;;5043107;28;20021;-75
2023/09/26 02:31:34;;;;;;;1999.90;999.90;;;7.80;96.50;;;;;;5042386;28;20141;-75
2023/09/26 02:34:00;;;;;;;1999.90;999.90;;;7.80;96.50;;;;;;5042708;28;20475;-73
2023/09/26 02:36:26;;;;;;;1999.90;999.90;;;7.80;96.60;;;;;;5042187;28;20562;-74
2023/09/26 02:38:52;;;;;;;1999.90;999.90;;;7.80;96.60;;;;;;5035523;28;20044;-74
2023/09/26 02:41:17;;;;;;;1999.90;999.90;;;7.80;96.60;;;;;;5039191;28;20117;-74
2023/09/26 02:43:43;;;;;;;1999.90;999.90;;;7.90;96.70;;;;;;5041751;28;20489;-75
2023/09/26 02:46:08;;;;;;;1999.90;999.90;;;7.90;97.00;;;;;;5033585;28;20034;-74
2023/09/26 02:48:34;;;;;;;1999.90;999.90;;;7.90;97.00;;;;;;5036639;28;20140;-74
2023/09/26 02:51:06;;;;;;;1999.90;999.90;;;7.90;97.10;;;;;;5036536;28;20025;-74
2023/09/26 02:53:31;;;;;;;1999.90;999.90;;;7.80;97.20;;;;;;5038222;28;20087;-74
2023/09/26 02:55:57;;;;;;;1999.90;999.90;;;7.80;97.40;;;;;;5040531;28;20037;-75
2023/09/26 02:58:22;;;;;;;1999.90;999.90;;;7.90;97.50;;;;;;5039071;28;20068;-74
2023/09/26 03:00:50;;;;;;;1999.90;999.90;;;7.90;97.50;;;;;;5035065;28;20076;-74
2023/09/26 03:03:15;;;;;;;1999.90;999.90;;;7.90;97.50;;;;;;5033369;28;20425;-74
2023/09/26 03:05:49;;;;;;;1999.90;999.90;;;7.80;97.30;;;;;;5041377;28;20040;-74
2023/09/26 03:08:15;;;;;;;1999.90;999.90;;;7.80;97.30;;;;;;5041574;28;20025;-74
2023/09/26 03:10:41;;;;;;;1999.90;999.90;;;7.80;97.10;;;;;;5039603;28;20044;-75
2023/09/26 03:13:06;;;;;;;1999.90;999.90;;;7.70;97.00;;;;;;5040330;28;20117;-74
2023/09/26 03:15:32;;;;;;;1999.90;999.90;;;7.60;96.90;;;;;;5038740;28;20029;-74
2023/09/26 03:17:58;;;;;;;1999.90;999.90;;;7.50;96.90;;;;;;5037694;28;20564;-73
2023/09/26 03:20:23;;;;;;;1999.90;999.90;;;7.50;97.00;;;;;;5037976;28;20109;-73
2023/09/26 03:22:49;;;;;;;1999.90;999.90;;;7.50;97.00;;;;;;5040855;28;20538;-74
2023/09/26 03:25:15;;;;;;;1999.90;999.90;;;7.50;96.90;;;;;;5042398;28;20052;-74
2023/09/26 03:27:42;;;;;;;1999.90;999.90;;;7.50;96.90;;;;;;5035429;28;20056;-74
2023/09/26 03:30:08;;;;;;;1999.90;999.90;;;7.50;96.80;;;;;;5037709;28;20036;-75
2023/09/26 03:32:34;;;;;;;1999.90;999.90;;;7.50;96.80;;;;;;5039428;28;20029;-73
2023/09/26 03:34:59;;;;;;;1999.90;999.90;;;7.50;96.80;;;;;;5037579;28;21624;-74
2023/09/26 03:37:25;;;;;;;1999.90;999.90;;;7.50;96.80;;;;;;5040447;28;20368;-74
2023/09/26 03:39:50;;;;;;;1999.90;999.90;;;7.60;96.70;;;;;;5039011;28;20541;-74
2023/09/26 03:42:16;;;;;;;1999.90;999.90;;;7.70;96.60;;;;;;5038770;28;20025;-73
2023/09/26 03:44:43;;;;;;;1999.90;999.90;;;7.80;96.40;;;;;;5035731;28;20029;-75
2023/09/26 03:47:09;;;;;;;1999.90;999.90;;;7.70;96.20;;;;;;5037645;28;20522;-74
2023/09/26 03:49:34;;;;;;;1999.90;999.90;;;7.70;96.10;;;;;;5038915;28;20109;-74
2023/09/26 03:52:00;;;;;;;1999.90;999.90;;;7.80;96.00;;;;;;5041239;28;20040;-74
2023/09/26 03:54:27;;;;;;;1999.90;999.90;;;7.80;95.90;;;;;;5031669;28;20025;-75
2023/09/26 03:56:52;;;;;;;1999.90;999.90;;;7.80;95.80;;;;;;5040714;28;20029;-76
2023/09/26 03:59:18;;;;;;;1999.90;999.90;;;7.90;96.20;;;;;;5037707;28;20088;-74
2023/09/26 04:01:43;;;;;;;1999.90;999.90;;;7.90;96.50;;;;;;5035324;28;20488;-75
2023/09/26 04:04:09;;;;;;;1999.90;999.90;;;8.00;96.40;;;;;;5039431;28;20040;-74
2023/09/26 04:06:35;;;;;;;1999.90;999.90;;;8.00;96.30;;;;;;5035765;28;20060;-75
2023/09/26 04:09:01;;;;;;;1999.90;999.90;;;8.00;96.30;;;;;;5042871;28;20040;-74
2023/09/26 04:11:27;;;;;;;1999.90;999.90;;;8.00;96.60;;;;;;5040289;28;20030;-73
2023/09/26 04:13:52;;;;;;;1999.90;999.90;;;8.00;96.40;;;;;;5031589;28;20033;-75
2023/09/26 04:16:18;;;;;;;1999.90;999.90;;;8.10;96.50;;;;;;5031360;28;20499;-74
2023/09/26 04:18:47;;;;;;;1999.90;999.90;;;8.20;96.40;;;;;;5036255;28;20068;-75
2023/09/26 04:21:13;;;;;;;1999.90;999.90;;;8.30;96.30;;;;;;5035050;28;20065;-74
2023/09/26 04:23:39;;;;;;;1999.90;999.90;;;8.20;96.10;;;;;;5033654;28;20037;-73
2023/09/26 04:26:15;;;;;;;1999.90;999.90;;;8.20;95.90;;;;;;5037037;28;20501;-73
2023/09/26 04:28:42;;;;;;;1999.90;999.90;;;8.20;96.10;;;;;;5030156;28;20113;-74
2023/09/26 04:31:12;;;;;;;1999.90;999.90;;;8.30;96.10;;;;;;5031144;28;20076;-74
2023/09/26 04:33:38;;;;;;;1999.90;999.90;;;8.30;95.90;;;;;;5033558;28;20028;-74
2023/09/26 04:36:04;;;;;;;1999.90;999.90;;;8.20;95.90;;;;;;5026898;28;20404;-74
2023/09/26 04:38:30;;;;;;;1999.90;999.90;;;8.20;95.60;;;;;;5028921;28;20040;-75
2023/09/26 04:40:55;;;;;;;1999.90;999.90;;;8.20;95.60;;;;;;5034796;28;20033;-74
2023/09/26 04:43:27;;;;;;;1999.90;999.90;;;8.30;95.60;;;;;;5029062;28;20071;-75
2023/09/26 04:45:52;;;;;;;1999.90;999.90;;;8.40;95.60;;;;;;5029333;28;20029;-76
2023/09/26 04:48:18;;;;;;;1999.90;999.90;;;8.50;95.60;;;;;;5030711;28;20839;-75
2023/09/26 04:50:44;;;;;;;1999.90;999.90;;;8.40;95.30;;;;;;5030653;28;20443;-76
2023/09/26 04:53:09;;;;;;;1999.90;999.90;;;8.50;95.40;;;;;;5031341;28;20494;-76
2023/09/26 04:55:36;;;;;;;1999.90;999.90;;;8.50;95.50;;;;;;5028571;28;20037;-74
2023/09/26 04:58:02;;;;;;;1999.90;999.90;;;8.50;95.20;;;;;;5034678;28;20193;-74
2023/09/26 05:00:29;;;;;;;1999.90;999.90;;;8.50;95.30;;;;;;5027983;28;20499;-76
2023/09/26 05:02:55;;;;;;;1999.90;999.90;;;8.60;95.50;;;;;;5030484;28;20037;-75
2023/09/26 05:05:20;;;;;;;1999.90;999.90;;;8.60;95.50;;;;;;5036845;28;20033;-74
2023/09/26 05:07:48;;;;;;;1999.90;999.90;;;8.50;95.40;;;;;;5037670;28;20061;-75
2023/09/26 05:10:15;;;;;;;1999.90;999.90;;;8.50;95.60;;;;;;5036330;28;20120;-74
2023/09/26 05:12:40;;;;;;;1999.90;999.90;;;8.60;95.70;;;;;;5033742;28;20381;-74
2023/09/26 05:15:14;;;;;;;1999.90;999.90;;;8.30;95.60;;;;;;5034261;28;20043;-75
2023/09/26 05:17:50;;;;;;;1999.90;999.90;;;8.40;96.00;;;;;;5035092;28;20079;-74
2023/09/26 05:20:16;;;;;;;1999.90;999.90;;;8.50;96.20;;;;;;5033430;28;20033;-76
2023/09/26 05:22:47;;;;;;;1999.90;999.90;;;8.60;96.30;;;;;;5035884;28;20032;-74
2023/09/26 05:25:13;;;;;;;;;;;8.70;96.10;;;;;;5032640;28;20044;-76
2023/09/26 05:27:40;;;;;;;1999.90;999.90;;;8.60;96.30;;;;;;5031369;28;19913;-76
2023/09/26 05:30:06;;;;;;;1999.90;999.90;;;8.70;95.90;;;;;;5030464;28;20046;-74
2023/09/26 05:32:32;;;;;;;1999.90;999.90;;;8.70;96.00;;;;;;5032317;28;20025;-74
2023/09/26 05:34:58;;;;;;;1999.90;999.90;;;8.80;95.90;;;;;;5036343;28;20025;-74
2023/09/26 05:37:24;;;;;;;1999.90;999.90;;;8.80;95.80;;;;;;5031763;28;20376;-74
2023/09/26 05:39:50;;;;;;;1999.90;999.90;;;8.70;95.40;;;;;;5033054;28;20041;-73
2023/09/26 05:42:16;;;;;;;1999.90;999.90;;;8.70;95.60;;;;;;5037650;28;20029;-76
2023/09/26 05:44:42;;;;;;;1999.90;999.90;;;8.80;96.10;;;;;;5038956;28;20028;-76
2023/09/26 05:47:07;;;;;;;1999.90;999.90;;;8.80;96.20;;;;;;5034373;28;20143;-77
2023/09/26 05:49:33;;;;;;;1999.90;999.90;;;9.10;96.00;;;;;;5037298;28;20029;-78
2023/09/26 05:51:59;;;;;;;1999.90;999.90;;;9.20;95.80;;;;;;5034695;28;20025;-77
2023/09/26 05:54:24;;;;;;;1999.90;999.90;;;9.10;95.90;;;;;;5018696;28;20044;-75
2023/09/26 05:56:50;;;;;;;1999.90;999.90;;;9.10;95.80;;;;;;5033091;28;20061;-78
2023/09/26 05:59:16;;;;;;;1999.90;999.90;;;9.20;95.60;;;;;;5034188;28;20041;-78
2023/09/26 06:01:42;;;;;;;1999.90;999.90;;;9.20;95.60;;;;;;5040856;28;20129;-77
2023/09/26 06:04:08;;;;;;;1999.90;999.90;;;9.40;95.80;;;;;;5036366;28;20127;-77
2023/09/26 06:06:34;;;;;;;1999.90;999.90;;;9.40;95.60;;;;;;5035785;28;20038;-76
2023/09/26 06:09:00;;;;;;;1999.90;999.90;;;9.60;95.70;;;;;;5034544;28;20039;-75
2023/09/26 06:11:25;;;;;;;1999.90;999.90;;;9.80;95.60;;;;;;5030643;28;20037;-76
2023/09/26 06:13:54;;;;;;;1999.90;999.90;;;9.70;95.30;;;;;;5037227;28;20799;-78
2023/09/26 06:16:20;;;;;;;1999.90;999.90;;;9.70;95.40;;;;;;5038518;28;20028;-76
2023/09/26 06:18:47;;;;;;;1999.90;999.90;;;9.70;95.50;;;;;;5037454;28;20033;-77
2023/09/26 06:21:14;;;;;;;1999.90;999.90;;;9.80;95.80;;;;;;5029806;28;20492;-76
2023/09/26 06:23:40;;;;;;;1999.90;999.90;;;10.00;95.50;;;;;;5035044;28;20030;-77
2023/09/26 06:26:07;;;;;;;1999.90;999.90;;;9.80;95.20;;;;;;5035279;28;20117;-78
2023/09/26 06:28:33;;;;;;;1999.90;999.90;;;10.10;95.20;;;;;;5042553;28;20025;-78
2023/09/26 06:31:06;;;;;;;1999.90;999.90;;;9.90;94.90;;;;;;5035907;28;20038;-77
2023/09/26 06:33:32;;;;;;;1999.90;999.90;;;9.90;94.90;;;;;;5039937;28;20494;-78
2023/09/26 06:35:58;;;;;;;1999.90;999.90;;;10.00;94.90;;;;;;5040894;28;20032;-79
2023/09/26 06:38:23;;;;;;;1999.90;999.90;;;10.30;94.80;;;;;;5042872;28;20514;-77
2023/09/26 06:41:02;;;;;;;1999.90;999.90;;;10.20;94.60;;;;;;5043077;28;20033;-77
2023/09/26 06:43:29;;;;;;;1999.90;999.90;;;10.30;94.40;;;;;;5041138;28;20400;-76
2023/09/26 06:45:55;;;;;;;1999.90;999.90;;;10.40;94.30;;;;;;5039739;28;20029;-78
2023/09/26 06:48:22;;;;;;;1999.90;999.90;;;10.20;94.00;;;;;;5036180;28;20056;-78
2023/09/26 06:50:49;;;;;;;1999.90;999.90;;;10.00;94.10;;;;;;5032589;28;20037;-84
2023/09/26 06:53:14;;;;;;;1999.90;999.90;;;10.30;94.30;;;;;;5038194;28;20031;-77
2023/09/26 06:55:42;;;;;;;1999.90;999.90;;;10.30;94.20;;;;;;5034703;28;20794;-76
2023/09/26 06:58:08;;;;;;;1999.90;999.90;;;10.30;93.80;;;;;;5037047;28;20534;-78
2023/09/26 07:00:35;;;;;;;1999.90;999.90;;;10.40;94.20;;;;;;5040729;28;20057;-78
2023/09/26 07:03:02;;;;;;;1999.90;999.90;;;10.50;93.90;;;;;;5041089;28;20029;-75
2023/09/26 07:05:28;;;;;;;1999.90;999.90;;;10.80;93.70;;;;;;5040348;28;20043;-76
2023/09/26 07:07:54;;;;;;;1999.90;999.90;;;10.80;93.40;;;;;;5038605;28;20037;-77
2023/09/26 07:10:24;;;;;;;1999.90;999.90;;;10.90;93.30;;;;;;5042213;28;20049;-77
2023/09/26 07:12:51;;;;;;;1999.90;999.90;;;10.80;92.90;;;;;;5041524;28;20036;-78
2023/09/26 07:15:18;;;;;;;1999.90;999.90;;;11.10;93.00;;;;;;5038613;28;20037;-77
2023/09/26 07:17:44;;;;;;;1999.90;999.90;;;11.10;93.10;;;;;;5043766;28;20039;-77
2023/09/26 07:20:13;;;;;;;1999.90;999.90;;;11.20;93.00;;;;;;5039312;28;20475;-75
2023/09/26 07:22:44;;;;;;;1999.90;999.90;;;11.00;92.50;;;;;;5034911;28;20119;-76
2023/09/26 07:25:11;;;;;;;1999.90;999.90;;;11.00;92.70;;;;;;5040251;28;20032;-78
2023/09/26 07:27:36;;;;;;;1999.90;999.90;;;11.50;93.10;;;;;;5043464;28;20024;-78
2023/09/26 07:30:04;;;;;;;1999.90;999.90;;;11.20;92.60;;;;;;5033875;28;20045;-78
2023/09/26 07:32:30;;;;;;;1999.90;999.90;;;11.00;92.70;;;;;;5040010;28;20025;-75
2023/09/26 07:34:57;;;;;;;1999.90;999.90;;;11.40;92.90;;;;;;5037218;28;20039;-76
2023/09/26 07:37:22;;;;;;;1999.90;999.90;;;11.30;92.90;;;;;;5037301;28;20055;-76
2023/09/26 07:39:51;;;;;;;1999.90;999.90;;;11.70;93.20;;;;;;5041373;28;20499;-75
2023/09/26 07:42:18;;;;;;;1999.90;999.90;;;12.20;91.10;;;;;;5035697;28;20044;-75
2023/09/26 07:44:44;;;;;;;1999.90;999.90;;;12.10;90.80;;;;;;5037868;28;20068;-76
2023/09/26 07:47:13;;;;;;;1999.90;999.90;;;11.80;90.80;;;;;;5037475;28;20081;-77
2023/09/26 07:49:40;;;;;;;1999.90;999.90;;;11.90;90.70;;;;;;5039494;28;20385;-78
2023/09/26 07:52:06;;;;;;;1999.90;999.90;;;12.00;91.10;;;;;;5043233;28;20382;-75
2023/09/26 07:54:33;;;;;;;1999.90;999.90;;;12.30;90.70;;;;;;5038928;28;20090;-78
2023/09/26 07:56:58;;;;;;;1999.90;999.90;;;12.60;90.80;;;;;;5034021;28;20020;-78
2023/09/26 07:59:24;;;;;;;1999.90;999.90;;;13.00;88.70;;;;;;5036728;28;20033;-77
2023/09/26 08:01:50;;;;;;;1999.90;999.90;;;13.00;87.90;;;;;;5036680;28;20451;-79
2023/09/26 08:04:16;;;;;;;1999.90;999.90;;;13.10;88.00;;;;;;5036522;28;20114;-77
2023/09/26 08:06:42;;;;;;;1999.90;999.90;;;13.00;85.70;;;;;;5039465;28;20507;-77
2023/09/26 08:09:10;;;;;;;1999.90;999.90;;;12.90;87.70;;;;;;5033554;28;20108;-78
2023/09/26 08:11:37;;;;;;;1999.90;999.90;;;13.00;86.50;;;;;;5031916;28;20021;-77
2023/09/26 08:14:03;;;;;;;1999.90;999.90;;;12.60;88.50;;;;;;5028442;28;20113;-78
2023/09/26 08:16:29;;;;;;;1999.90;999.90;;;12.80;88.40;;;;;;5038324;28;20112;-77
2023/09/26 08:18:55;;;;;;;1999.90;999.90;;;12.90;88.80;;;;;;5040890;28;20045;-80
2023/09/26 08:21:20;;;;;;;1999.90;999.90;;;13.00;89.30;;;;;;5037614;28;20025;-78
2023/09/26 08:23:46;;;;;;;1999.90;999.90;;;13.30;89.50;;;;;;5037428;28;20033;-77
2023/09/26 08:26:12;;;;;;;1999.90;999.90;;;13.60;88.80;;;;;;5036820;28;20123;-78
2023/09/26 08:28:40;;;;;;;1999.90;999.90;;;14.10;87.00;;;;;;5039651;28;20312;-77
2023/09/26 08:31:10;;;;;;;1999.90;999.90;;;14.60;86.60;;;;;;5034939;28;20053;-77
2023/09/26 08:33:37;;;;;;;1999.90;999.90;;;14.20;85.30;;;;;;5039378;28;20487;-77
2023/09/26 08:36:12;;;;;;;1999.90;999.90;;;14.30;85.30;;;;;;5027767;28;20036;-77
2023/09/26 08:38:38;;;;;;;1999.90;999.90;;;14.10;85.10;;;;;;5033285;28;20515;-77
2023/09/26 08:41:05;;;;;;;1999.90;999.90;;;13.90;84.60;;;;;;5038640;28;20067;-77
2023/09/26 08:43:33;;;;;;;1999.90;999.90;;;13.90;86.80;;;;;;5035393;28;20057;-78
2023/09/26 08:45:59;;;;;;;1999.90;999.90;;;14.20;85.50;;;;;;5041037;28;20028;-77
2023/09/26 08:48:24;;;;;;;1999.90;999.90;;;14.60;85.60;;;;;;5034099;28;20028;-76
2023/09/26 08:50:51;;;;;;;1999.90;999.90;;;14.90;83.70;;;;;;5030811;28;20037;-76
2023/09/26 08:53:17;;;;;;;1999.90;999.90;;;15.30;83.00;;;;;;5039110;28;20552;-75
2023/09/26 08:55:45;;;;;;;1999.90;999.90;;;15.00;83.80;;;;;;5033866;28;20042;-75
2023/09/26 08:58:14;;;;;;;1999.90;999.90;;;14.60;83.80;;;;;;5030437;28;20116;-75
2023/09/26 09:00:40;;;;;;;1999.90;999.90;;;14.40;85.80;;;;;;5031638;28;20192;-75
2023/09/26 09:03:06;;;;;;;1999.90;999.90;;;14.60;85.50;;;;;;5035711;28;20112;-75
2023/09/26 09:05:32;;;;;;;1999.90;999.90;;;14.70;84.90;;;;;;5030698;28;20659;-76
2023/09/26 09:07:57;;;;;;;1999.90;999.90;;;14.80;86.10;;;;;;5027558;28;20029;-76
2023/09/26 09:10:23;;;;;;;1999.90;999.90;;;14.80;84.80;;;;;;5036685;28;20476;-75
2023/09/26 09:13:00;;;;;;;1999.90;999.90;;;15.10;84.40;;;;;;5038023;28;20034;-75
2023/09/26 09:15:27;;;;;;;1999.90;999.90;;;14.90;84.10;;;;;;5030592;28;20484;-76
2023/09/26 09:17:53;;;;;;;1999.90;999.90;;;15.00;83.80;;;;;;5034457;28;20451;-75
2023/09/26 09:20:33;;;;;;;1999.90;999.90;;;15.20;83.00;;;;;;5038683;28;20022;-75
2023/09/26 09:23:00;;;;;;;1999.90;999.90;;;15.40;81.90;;;;;;5037191;28;20040;-74
2023/09/26 09:25:40;;;;;;;1999.90;999.90;;;15.60;81.90;;;;;;5037574;28;20418;-75
2023/09/26 09:28:07;;;;;;;1999.90;999.90;;;15.80;80.10;;;;;;5034726;28;20029;-75
2023/09/26 09:30:38;;;;;;;1999.90;999.90;;;16.00;78.60;;;;;;5036008;28;20072;-75
2023/09/26 09:33:06;;;;;;;1999.90;999.90;;;16.10;80.20;;;;;;5036995;28;20420;-75
2023/09/26 09:35:32;;;;;;;1999.90;999.90;;;16.30;78.50;;;;;;5037991;28;20075;-76
2023/09/26 09:37:58;;;;;;;1999.90;999.90;;;16.20;78.20;;;;;;5031904;28;20044;-75
2023/09/26 09:40:24;;;;;;;1999.90;999.90;;;16.40;77.40;;;;;;5021224;28;20037;-75
2023/09/26 09:42:51;;;;;;;1999.90;999.90;;;16.70;79.30;;;;;;5034704;28;20552;-76
2023/09/26 09:45:18;;;;;;;1999.90;999.90;;;16.60;76.70;;;;;;5041998;28;20116;-76
2023/09/26 09:47:48;;;;;;;1999.90;999.90;;;16.80;77.30;;;;;;5036880;28;20029;-75
2023/09/26 09:50:15;;;;;;;1999.90;999.90;;;17.00;76.20;;;;;;5035568;28;20038;-76
2023/09/26 09:52:48;;;;;;;1999.90;999.90;;;17.20;74.40;;;;;;5035534;28;20033;-75
2023/09/26 09:55:29;;;;;;;1999.90;999.90;;;17.20;75.10;;;;;;5030237;28;20034;-76
2023/09/26 09:57:57;;;;;;;1999.90;999.90;;;17.20;73.60;;;;;;5035243;28;20025;-76
2023/09/26 10:00:25;;;;;;;1999.90;999.90;;;17.20;72.30;;;;;;5036167;28;20026;-76
2023/09/26 10:03:00;;;;;;;1999.90;999.90;;;17.20;72.00;;;;;;5039211;28;20025;-77
2023/09/26 10:05:28;;;;;;;1999.90;999.90;;;17.60;72.40;;;;;;5040534;28;20025;-77
2023/09/26 10:07:55;;;;;;;1999.90;999.90;;;17.70;70.70;;;;;;5043900;28;20167;-76
2023/09/26 10:10:22;;;;;;;1999.90;999.90;;;17.70;71.00;;;;;;5035357;28;20033;-76
2023/09/26 10:12:48;;;;;;;1999.90;999.90;;;17.70;71.30;;;;;;5038336;28;20260;-76
2023/09/26 10:15:16;;;;;;;1999.90;999.90;;;17.80;73.60;;;;;;5038742;28;20454;-75
2023/09/26 10:17:43;;;;;;;1999.90;999.90;;;18.10;71.00;;;;;;5037386;28;20064;-75
2023/09/26 10:20:14;;;;;;;1999.90;999.90;;;18.20;69.00;;;;;;5039438;28;20036;-74
2023/09/26 10:22:42;;;;;;;1999.90;999.90;;;18.20;68.10;;;;;;5031710;28;20494;-75
2023/09/26 10:25:10;;;;;;;1999.90;999.90;;;18.20;67.10;;;;;;5040189;28;20336;-75
2023/09/26 10:27:38;;;;;;;1999.90;999.90;;;18.40;67.00;;;;;;5041641;28;20099;-76
2023/09/26 10:30:06;;;;;;;1999.90;999.90;;;18.30;69.20;;;;;;5039276;28;20026;-76
2023/09/26 10:32:37;;;;;;;1999.90;999.90;;;18.70;69.50;;;;;;5040185;28;20086;-76
2023/09/26 10:35:24;;;;;;;1999.90;999.90;;;18.80;66.40;;;;;;5039561;28;20036;-75
2023/09/26 10:38:07;;;;;;;1999.90;999.90;;;18.90;68.90;;;;;;5041131;28;20389;-75
2023/09/26 10:40:33;;;;;;;1999.90;999.90;;;19.20;63.50;;;;;;5040899;28;20029;-73
2023/09/26 10:42:59;;;;;;;1999.90;999.90;;;19.10;63.10;;;;;;5038016;28;20033;-73
2023/09/26 10:45:24;;;;;;;1999.90;999.90;;;19.80;62.30;;;;;;5039812;28;20041;-73
2023/09/26 10:47:50;;;;;;;1999.90;999.90;;;20.10;59.10;;;;;;5035458;28;20464;-73
2023/09/26 10:50:16;;;;;;;1999.90;999.90;;;20.50;56.90;;;;;;5041656;28;20087;-73
2023/09/26 10:52:46;;;;;;;1999.90;999.90;;;20.90;57.60;;;;;;5039378;28;20714;-72
2023/09/26 10:55:20;;;;;;;1999.90;999.90;;;21.00;56.30;;;;;;5041923;28;20037;-73
2023/09/26 10:57:47;;;;;;;1999.90;999.90;;;21.40;55.50;;;;;;5038658;28;20198;-73
2023/09/26 11:00:14;;;;;;;1999.90;999.90;;;21.30;54.80;;;;;;5031868;28;20115;-70
2023/09/26 11:02:42;;;;;;;1999.90;999.90;;;21.40;53.50;;;;;;5033889;28;20040;-69
2023/09/26 11:05:10;;;;;;;1999.90;999.90;;;21.20;55.30;;;;;;5036605;28;20041;-70
2023/09/26 11:07:37;;;;;;;1999.90;999.90;;;21.90;54.00;;;;;;5041002;28;20045;-69
2023/09/26 11:10:03;;;;;;;1999.90;999.90;;;21.70;52.00;;;;;;5040469;28;20032;-69
2023/09/26 11:12:30;;;;;;;1999.90;999.90;;;21.60;53.40;;;;;;5035348;28;20099;-72
2023/09/26 11:14:57;;;;;;;1999.90;999.90;;;21.00;54.90;;;;;;5037035;28;20160;-69
2023/09/26 11:17:27;;;;;;;1999.90;999.90;;;20.80;56.60;;;;;;5034775;28;20033;-69
2023/09/26 11:19:57;;;;;;;1999.90;999.90;;;21.00;57.60;;;;;;5036063;28;20033;-69
2023/09/26 11:22:23;;;;;;;1999.90;999.90;;;21.10;56.20;;;;;;5036606;28;20038;-69
2023/09/26 11:24:49;;;;;;;1999.90;999.90;;;20.80;58.30;;;;;;5033896;28;20041;-69
2023/09/26 11:27:15;;;;;;;1999.90;999.90;;;20.80;58.80;;;;;;5037194;28;20040;-69
2023/09/26 11:29:41;;;;;;;1999.90;999.90;;;21.40;56.80;;;;;;5036403;28;20033;-69
2023/09/26 11:32:06;;;;;;;1999.90;999.90;;;22.00;57.00;;;;;;5036155;28;20056;-69
2023/09/26 11:34:36;;;;;;;1999.90;999.90;;;22.90;53.00;;;;;;5044265;28;20036;-69
2023/09/26 11:37:04;;;;;;;1999.90;999.90;;;23.60;51.10;;;;;;5029650;28;20556;-69
2023/09/26 11:39:30;;;;;;;1999.90;999.90;;;24.00;51.90;;;;;;5040108;28;20128;-69
2023/09/26 11:42:02;;;;;;;1999.90;999.90;;;24.50;47.60;;;;;;5038527;28;20108;-74
2023/09/26 11:44:27;;;;;;;1999.90;999.90;;;25.20;45.10;;;;;;5031821;28;20029;-71
2023/09/26 11:46:53;;;;;;;1999.90;999.90;;;25.80;42.50;;;;;;5036578;28;20039;-71
2023/09/26 11:49:19;;;;;;;1999.90;999.90;;;24.30;45.00;;;;;;5035758;28;20030;-72
2023/09/26 11:51:48;;;;;;;1999.90;999.90;;;24.70;42.50;;;;;;5038757;28;20065;-72
2023/09/26 11:54:14;;;;;;;1999.90;999.90;;;25.10;43.00;;;;;;5038978;28;20112;-72
2023/09/26 11:56:44;;;;;;;1999.90;999.90;;;25.10;42.30;;;;;;5021984;28;20128;-74
2023/09/26 11:59:10;;;;;;;1999.90;999.90;;;24.80;44.80;;;;;;5036093;28;20033;-72
2023/09/26 12:01:36;;;;;;;1999.90;999.90;;;24.60;44.50;;;;;;5037747;28;20029;-73
2023/09/26 12:04:05;;;;;;;1999.90;999.90;;;25.20;45.80;;;;;;5041257;28;20036;-72